Time;durP1;ratioP1;P1;durP2;ratioP2;P2;SDS_P1;SDS_P2;PMS_P1;PMS_P2;Temp;Humidity;BMP_temperature;BMP_pressure;BME280_temperature;BME280_humidity;BME280_pressure;Samples;Min_cycle;Max_cycle;Signal;HPM_P1;HPM_P2
2022/06/06 00:00:46;;;;;;;10.30;8.80;;;;;;;13.22;64.77;96773.12;107301;1273;63760;-74
2022/06/06 00:03:20;;;;;;;11.40;8.60;;;;;;;12.92;65.30;96773.59;107371;1273;61632;-73
2022/06/06 00:05:51;;;;;;;8.70;7.80;;;;;;;12.73;66.19;96773.19;107328;1273;62354;-72
2022/06/06 00:08:22;;;;;;;7.90;7.10;;;;;;;12.72;66.64;96772.39;107209;1273;56572;-72
2022/06/06 00:10:57;;;;;;;8.00;7.20;;;;;;;12.81;66.65;96772.73;107279;1273;64917;-72
2022/06/06 00:13:28;;;;;;;9.00;7.90;;;;;;;12.85;66.58;96771.41;107372;1273;49777;-72
2022/06/06 00:16:03;;;;;;;9.50;7.40;;;;;;;12.87;66.73;96767.39;107289;1273;62430;-72
2022/06/06 00:18:35;;;;;;;8.60;7.70;;;;;;;12.92;66.75;96769.18;107223;1273;66333;-73
2022/06/06 00:21:08;;;;;;;9.40;8.40;;;;;;;12.73;66.61;96765.41;107306;1273;59518;-72
2022/06/06 00:23:40;;;;;;;7.60;6.80;;;;;;;12.75;67.00;96764.14;107382;1273;47977;-72
2022/06/06 00:26:13;;;;;;;9.70;7.40;;;;;;;12.92;67.51;96765.55;107430;1273;31787;-72
2022/06/06 00:28:46;;;;;;;8.90;8.00;;;;;;;12.97;66.91;96765.06;107314;1273;59202;-72
2022/06/06 00:36:54;;;;;;;8.50;7.40;;;;;;;13.04;68.02;96768.92;107273;1273;60533;-73
2022/06/06 00:39:26;;;;;;;9.00;8.10;;;;;;;12.95;67.13;96771.05;107205;1273;64364;-72
2022/06/06 00:41:58;;;;;;;9.40;8.00;;;;;;;12.75;67.68;96767.02;107218;1273;41675;-73
2022/06/06 00:44:34;;;;;;;8.50;7.70;;;;;;;12.79;67.99;96762.01;107445;1273;37707;-72
2022/06/06 00:47:14;;;;;;;7.90;7.10;;;;;;;12.72;67.89;96763.71;107248;1273;47943;-72
2022/06/06 00:49:46;;;;;;;;;;;;;;;12.44;68.19;96759.26;107344;1273;43270;-73
2022/06/06 00:52:21;;;;;;;10.50;7.60;;;;;;;12.33;68.86;96755.63;107368;1273;45521;-73
2022/06/06 00:54:56;;;;;;;7.50;6.60;;;;;;;12.14;68.63;96754.31;107435;1273;35343;-72
2022/06/06 00:57:32;;;;;;;7.80;7.00;;;;;;;12.13;69.22;96751.79;107328;1270;70118;-73
2022/06/06 01:00:08;;;;;;;7.70;6.80;;;;;;;12.23;69.43;96744.73;107338;1274;41953;-73
2022/06/06 01:02:41;;;;;;;8.20;7.40;;;;;;;12.25;69.78;96746.53;107471;1273;47973;-72
2022/06/06 01:05:13;;;;;;;8.30;7.50;;;;;;;12.15;69.94;96743.52;107407;1273;32473;-72
2022/06/06 01:07:44;;;;;;;8.20;7.20;;;;;;;12.17;70.58;96738.23;107488;1273;32061;-73
2022/06/06 01:10:16;;;;;;;7.30;6.30;;;;;;;12.28;70.73;96738.84;107363;1273;46402;-72
2022/06/06 01:12:53;;;;;;;9.80;6.20;;;;;;;12.44;71.02;96738.52;107412;1273;51125;-73
2022/06/06 01:15:27;;;;;;;8.30;6.60;;;;;;;12.28;70.18;96743.13;107220;1274;56794;-72
2022/06/06 01:18:09;;;;;;;7.90;6.60;;;;;;;12.17;71.24;96744.92;107392;1273;32623;-72
2022/06/06 01:21:03;;;;;;;9.60;7.70;;;;;;;12.36;71.12;96746.21;107417;1273;35441;-73
2022/06/06 01:23:59;;;;;;;6.30;5.70;;;;;;;12.31;70.94;96748.21;107263;1273;56644;-73
2022/06/06 01:26:42;;;;;;;7.60;6.10;;;;;;;12.32;70.77;96757.92;107277;1273;38101;-73
2022/06/06 01:29:16;;;;;;;9.50;7.60;;;;;;;12.35;71.53;96761.83;107376;1273;35338;-72
2022/06/06 01:31:51;;;;;;;7.30;6.60;;;;;;;12.37;70.94;96762.86;107398;1273;31120;-73
2022/06/06 01:34:27;;;;;;;6.20;5.50;;;;;;;12.39;71.08;96760.55;107375;1273;37950;-73
2022/06/06 01:36:59;;;;;;;6.40;5.80;;;;;;;12.66;71.07;96757.52;107257;1273;60827;-73
2022/06/06 01:39:32;;;;;;;7.60;6.80;;;;;;;12.70;70.10;96759.22;107342;1271;59616;-73
2022/06/06 01:42:10;;;;;;;9.10;6.30;;;;;;;12.57;70.21;96752.98;107389;1273;36747;-73
2022/06/06 01:44:47;;;;;;;7.60;6.90;;;;;;;12.68;70.13;96761.13;107487;1273;30495;-73
2022/06/06 01:47:24;;;;;;;6.60;5.90;;;;;;;12.67;69.88;96754.77;107350;1273;50521;-73
2022/06/06 01:49:56;;;;;;;6.60;5.70;;;;;;;12.61;69.77;96752.60;107061;1273;92314;-72
2022/06/06 01:52:28;;;;;;;6.50;5.70;;;;;;;12.59;69.99;96748.63;107270;1273;45536;-73
2022/06/06 01:55:00;;;;;;;6.70;5.60;;;;;;;12.54;70.01;96748.11;107138;1272;74554;-73
2022/06/06 01:57:31;;;;;;;7.70;6.10;;;;;;;12.54;70.13;96752.54;107325;1273;31203;-73
2022/06/06 02:00:02;;;;;;;6.30;5.70;;;;;;;12.57;70.24;96754.77;107384;1273;42120;-72
2022/06/06 02:02:34;;;;;;;7.60;6.30;;;;;;;12.61;70.16;96749.77;107282;1273;68398;-72
2022/06/06 02:05:06;;;;;;;7.80;7.00;;;;;;;12.53;70.01;96758.60;107399;1273;45100;-73
2022/06/06 02:07:37;;;;;;;5.90;5.40;;;;;;;12.48;70.41;96762.55;107246;1273;51263;-73
2022/06/06 02:10:15;;;;;;;7.60;5.70;;;;;;;12.63;70.52;96762.52;107338;1273;28874;-73
2022/06/06 02:12:47;;;;;;;6.30;5.70;;;;;;;12.73;70.30;96767.11;107228;1273;70427;-74
2022/06/06 02:15:22;;;;;;;7.50;6.50;;;;;;;12.73;69.99;96767.68;107143;1273;70836;-73
2022/06/06 02:17:57;;;;;;;8.10;7.00;;;;;;;12.76;70.03;96765.95;107255;1273;69362;-73
2022/06/06 02:20:31;;;;;;;8.20;6.90;;;;;;;12.74;69.83;96765.02;107337;1273;54988;-73
2022/06/06 02:23:03;;;;;;;6.70;6.00;;;;;;;12.75;69.83;96768.52;107297;1273;64074;-73
2022/06/06 02:25:36;;;;;;;6.20;5.60;;;;;;;12.74;69.68;96766.56;107373;1273;43413;-73
2022/06/06 02:28:09;;;;;;;7.90;5.80;;;;;;;12.72;69.57;96764.10;107485;1273;43046;-73
2022/06/06 02:30:41;;;;;;;7.30;6.60;;;;;;;12.72;69.56;96759.98;107324;1273;56639;-73
2022/06/06 02:33:12;;;;;;;6.70;6.00;;;;;;;12.72;69.72;96755.31;107395;1273;31212;-73
2022/06/06 02:35:44;;;;;;;7.50;6.70;;;;;;;12.77;69.72;96755.27;107250;1273;70487;-72
2022/06/06 02:38:15;;;;;;;7.70;6.80;;;;;;;12.77;69.49;96757.30;107256;1272;68190;-72
2022/06/06 02:40:47;;;;;;;6.90;6.20;;;;;;;12.75;69.35;96760.70;107318;1272;55429;-73
2022/06/06 02:43:21;;;;;;;7.00;6.30;;;;;;;12.73;69.63;96754.70;107367;1273;33047;-73
2022/06/06 02:45:52;;;;;;;6.90;6.20;;;;;;;12.72;69.55;96752.65;107322;1273;37748;-73
2022/06/06 02:48:23;;;;;;;7.40;6.60;;;;;;;12.74;69.74;96752.94;107304;1273;37365;-73
2022/06/06 02:50:54;;;;;;;7.40;6.70;;;;;;;12.78;69.63;96750.80;107281;1273;55120;-73
2022/06/06 02:53:25;;;;;;;6.80;6.10;;;;;;;12.81;69.62;96744.38;107335;1272;39946;-73
2022/06/06 02:55:58;;;;;;;7.00;6.30;;;;;;;12.82;69.72;96743.85;107359;1273;34453;-73
2022/06/06 02:58:30;;;;;;;7.20;6.50;;;;;;;12.76;69.70;96743.38;107382;1273;33409;-73
2022/06/06 03:01:04;;;;;;;7.20;6.10;;;;;;;12.75;69.75;96744.30;107366;1273;43610;-73
2022/06/06 03:03:37;;;;;;;6.60;5.90;;;;;;;12.74;69.68;96746.66;107407;1273;31026;-73
2022/06/06 03:06:23;;;;;;;7.50;6.00;;;;;;;12.71;69.74;96747.98;107357;1273;42222;-73
2022/06/06 03:09:07;;;;;;;7.60;6.10;;;;;;;12.76;69.79;96751.30;107358;1273;30823;-73
2022/06/06 03:12:02;;;;;;;7.10;6.10;;;;;;;12.80;69.84;96751.68;107389;1273;39993;-72
2022/06/06 03:15:07;;;;;;;8.10;7.30;;;;;;;12.84;69.85;96756.06;107372;1273;36122;-72
2022/06/06 03:20:54;;;;;;;7.10;6.20;;;;;;;13.00;69.75;96767.25;107398;1273;29920;-73
2022/06/06 03:23:44;;;;;;;7.50;5.60;;;;;;;13.07;69.74;96768.20;107388;1272;32257;-72
2022/06/06 03:26:29;;;;;;;7.20;5.50;;;;;;;13.12;69.89;96766.77;107420;1273;35864;-72
2022/06/06 03:29:14;;;;;;;6.30;5.70;;;;;;;13.14;69.78;96768.64;107402;1273;33393;-73
2022/06/06 03:31:55;;;;;;;5.90;5.40;;;;;;;13.04;69.97;96774.42;107456;1273;28737;-72
2022/06/06 03:34:28;;;;;;;;;;;;;;;13.00;70.23;96779.48;107329;1272;46390;-72
2022/06/06 03:37:12;;;;;;;7.80;6.40;;;;;;;13.09;70.26;96772.70;107370;1273;44336;-72
2022/06/06 03:39:52;;;;;;;7.00;6.20;;;;;;;13.19;70.19;96770.11;107453;1273;29440;-72
2022/06/06 03:42:34;;;;;;;6.50;5.60;;;;;;;13.23;70.37;96769.90;107356;1273;33708;-72
2022/06/06 03:45:19;;;;;;;7.20;6.50;;;;;;;13.19;70.56;96773.89;107388;1273;29772;-72
2022/06/06 03:48:03;;;;;;;7.50;6.70;;;;;;;13.14;70.62;96772.31;107300;1273;60519;-73
2022/06/06 03:50:42;;;;;;;8.40;7.60;;;;;;;13.18;70.47;96768.53;107409;1273;30454;-72
2022/06/06 03:53:19;;;;;;;8.30;6.90;;;;;;;13.27;70.35;96763.71;107421;1272;30809;-72
2022/06/06 03:56:03;;;;;;;7.10;6.20;;;;;;;13.36;70.08;96760.36;107412;1273;39283;-73
2022/06/06 03:58:35;;;;;;;7.10;6.40;;;;;;;13.49;70.05;96761.32;107425;1273;28743;-73
2022/06/06 04:01:09;;;;;;;8.60;7.20;;;;;;;13.56;69.83;96768.34;107389;1272;32747;-73
2022/06/06 04:03:42;;;;;;;8.30;7.30;;;;;;;13.61;69.72;96767.56;107341;1273;62692;-72
2022/06/06 04:06:13;;;;;;;8.30;7.50;;;;;;;13.64;69.66;96763.66;107383;1273;48668;-72
2022/06/06 04:08:44;;;;;;;7.90;6.80;;;;;;;13.73;69.48;96762.04;107435;1273;34954;-72
2022/06/06 04:11:28;;;;;;;7.60;6.80;;;;;;;13.84;69.32;96762.55;107398;1271;46082;-72
2022/06/06 04:14:10;;;;;;;6.90;6.20;;;;;;;14.00;69.17;96758.86;107370;1273;39131;-72
2022/06/06 04:16:54;;;;;;;7.20;6.50;;;;;;;14.15;69.01;96761.23;107404;1273;37610;-72
2022/06/06 04:19:37;;;;;;;7.80;6.90;;;;;;;14.30;68.69;96759.60;107392;1273;37204;-72
2022/06/06 04:22:18;;;;;;;7.80;7.00;;;;;;;14.40;68.32;96755.38;107356;1272;33591;-72
2022/06/06 04:25:07;;;;;;;7.70;7.00;;;;;;;14.48;68.00;96756.96;107363;1273;33631;-73
2022/06/06 04:27:44;;;;;;;7.30;6.40;;;;;;;14.53;67.89;96754.61;107371;1273;31562;-72
2022/06/06 04:30:23;;;;;;;6.70;6.10;;;;;;;14.62;67.78;96755.59;107255;1272;259742;-72
2022/06/06 04:33:11;;;;;;;8.00;6.50;;;;;;;14.74;67.75;96754.46;107356;1273;40551;-72
2022/06/06 04:35:54;;;;;;;9.40;7.00;;;;;;;14.95;67.69;96764.16;107393;1273;47998;-72
2022/06/06 04:38:31;;;;;;;13.70;7.30;;;;;;;15.16;67.32;96760.17;107268;1273;46195;-72
2022/06/06 04:41:12;;;;;;;7.10;6.40;;;;;;;15.32;67.13;96756.42;107291;1273;40590;-72
2022/06/06 04:43:50;;;;;;;7.60;6.70;;;;;;;15.51;66.90;96753.67;107430;1273;39149;-72
2022/06/06 04:46:27;;;;;;;7.20;6.50;;;;;;;15.66;66.25;96754.09;107354;1273;48476;-72
2022/06/06 04:49:00;;;;;;;7.30;6.50;;;;;;;15.80;65.67;96752.31;107381;1272;41075;-72
2022/06/06 04:51:33;;;;;;;7.50;6.70;;;;;;;15.84;64.91;96751.88;107339;1273;45646;-73
2022/06/06 04:54:04;;;;;;;7.00;6.30;;;;;;;15.87;64.94;96751.83;107228;1273;55950;-72
2022/06/06 04:56:41;;;;;;;7.60;6.90;;;;;;;16.01;65.13;96751.73;107317;1273;53675;-72
2022/06/06 04:59:14;;;;;;;7.80;7.10;;;;;;;16.31;65.49;96755.13;107412;1273;32914;-72
2022/06/06 05:01:46;;;;;;;6.80;6.10;;;;;;;16.68;65.36;96761.45;107408;1273;46581;-72
2022/06/06 05:04:17;;;;;;;5.70;5.20;;;;;;;17.06;64.57;96761.70;107386;1273;31460;-73
2022/06/06 05:07:15;;;;;;;6.20;5.60;;;;;;;17.35;62.94;96762.96;107396;1273;27670;-73
2022/06/06 05:10:17;;;;;;;6.90;6.20;;;;;;;17.71;62.64;96770.85;107396;1272;45400;-74
2022/06/06 05:13:14;;;;;;;7.20;5.80;;;;;;;18.30;62.00;96767.52;107354;1273;44295;-73
2022/06/06 05:16:01;;;;;;;7.60;5.90;;;;;;;18.89;60.57;96768.63;107431;1273;34163;-73
2022/06/06 05:18:47;;;;;;;6.50;5.90;;;;;;;20.30;58.78;96765.30;107396;1273;31645;-73
2022/06/06 05:21:40;;;;;;;7.20;6.00;;;;;;;22.12;55.02;96767.77;107386;1273;36566;-73
2022/06/06 05:24:45;;;;;;;6.10;5.10;;;;;;;23.31;51.18;96771.54;107444;1272;35124;-73
2022/06/06 05:27:31;;;;;;;5.20;4.70;;;;;;;24.66;49.08;96766.58;107161;1273;53180;-75
2022/06/06 05:30:12;;;;;;;5.10;4.60;;;;;;;25.80;46.06;96766.48;107267;1273;72171;-73
2022/06/06 05:33:03;;;;;;;5.60;4.90;;;;;;;26.49;45.19;96765.52;107399;1273;69261;-73
2022/06/06 05:36:24;;;;;;;4.70;4.20;;;;;;;27.38;43.98;96767.11;107278;1273;42559;-73
2022/06/06 05:39:10;;;;;;;4.90;4.30;;;;;;;28.31;39.86;96768.09;106795;1281;69446;-74
2022/06/06 05:42:10;;;;;;;4.30;3.90;;;;;;;28.29;38.22;96764.28;107333;1274;59544;-73
2022/06/06 05:44:54;;;;;;;4.60;4.10;;;;;;;28.49;37.66;96766.29;105927;1274;2023900;-74
2022/06/06 05:47:34;;;;;;;4.60;4.20;;;;;;;28.84;37.08;96772.73;107358;1274;60582;-74
2022/06/06 05:50:24;;;;;;;4.70;3.90;;;;;;;28.91;37.00;96771.47;107427;1274;31426;-74
2022/06/06 05:53:18;;;;;;;4.50;4.00;;;;;;;28.88;35.77;96765.15;107332;1274;48417;-73
2022/06/06 05:56:14;;;;;;;4.60;4.10;;;;;;;28.88;35.49;96765.63;107377;1273;35017;-74
2022/06/06 05:59:01;;;;;;;4.50;4.10;;;;;;;29.15;35.49;96770.70;107434;1274;58925;-74
2022/06/06 06:01:49;;;;;;;5.40;4.20;;;;;;;29.36;34.75;96779.66;106450;1274;1181855;-74
2022/06/06 06:04:37;;;;;;;4.30;3.80;;;;;;;29.65;34.93;96777.98;107231;1274;66586;-75
2022/06/06 06:07:21;;;;;;;4.80;4.30;;;;;;;30.16;34.35;96779.47;107220;1274;55186;-74
2022/06/06 06:10:07;;;;;;;4.30;3.90;;;;;;;30.80;33.96;96777.75;107310;1274;50354;-75
2022/06/06 06:13:15;;;;;;;4.50;3.90;;;;;;;31.26;32.98;96779.86;107256;1274;75461;-74
2022/06/06 06:15:52;;;;;;;4.10;3.70;;;;;;;31.39;32.25;96776.88;107194;1274;47656;-75
2022/06/06 06:18:30;;;;;;;4.30;3.70;;;;;;;31.47;32.80;96772.17;107259;1273;113389;-75
2022/06/06 06:21:09;;;;;;;4.20;3.80;;;;;;;32.55;32.55;96768.14;107227;1274;64013;-75
2022/06/06 06:23:45;;;;;;;4.50;3.40;;;;;;;33.71;31.35;96770.17;107204;1273;71246;-75
2022/06/06 06:26:17;;;;;;;5.20;3.30;;;;;;;34.16;29.71;96772.06;107371;1272;41887;-73
2022/06/06 06:28:50;;;;;;;4.10;3.60;;;;;;;32.74;29.79;96777.00;107321;1274;40441;-74
2022/06/06 06:31:33;;;;;;;3.80;3.50;;;;;;;32.48;30.39;96778.07;107382;1274;32009;-73
2022/06/06 06:34:19;;;;;;;4.20;3.70;;;;;;;31.98;29.91;96779.14;107331;1273;37916;-73
2022/06/06 06:37:00;;;;;;;3.70;3.30;;;;;;;31.44;30.72;96786.54;107386;1273;37660;-73
2022/06/06 06:39:57;;;;;;;3.60;3.30;;;;;;;31.66;30.80;96784.52;107329;1274;43593;-74
2022/06/06 06:42:52;;;;;;;4.00;3.10;;;;;;;32.14;30.88;96786.52;107324;1274;40521;-74
2022/06/06 06:45:28;;;;;;;3.80;3.50;;;;;;;32.61;29.48;96788.20;107335;1274;34208;-74
2022/06/06 06:48:03;;;;;;;3.60;3.30;;;;;;;31.55;28.87;96786.27;107373;1274;48862;-73
2022/06/06 06:50:40;;;;;;;3.90;3.50;;;;;;;30.05;30.54;96788.52;107412;1274;42582;-74
2022/06/06 06:53:27;;;;;;;4.00;3.60;;;;;;;29.66;31.48;96794.69;107391;1273;40222;-72
2022/06/06 06:56:07;;;;;;;5.40;4.00;;;;;;;29.27;32.16;96788.20;107349;1273;49801;-73
2022/06/06 06:58:52;;;;;;;4.10;3.70;;;;;;;28.47;32.40;96789.27;107350;1274;35433;-73
2022/06/06 07:01:36;;;;;;;4.00;3.70;;;;;;;27.24;33.58;96791.54;107355;1274;41738;-75
2022/06/06 07:10:23;;;;;;;5.10;3.90;;;;;;;29.43;34.62;96784.61;107333;1274;31855;-74
2022/06/06 07:13:14;;;;;;;3.90;3.40;;;;;;;30.95;33.09;96782.52;107426;1274;35320;-74
2022/06/06 07:15:48;;;;;;;4.40;3.80;;;;;;;31.91;31.36;96781.14;107544;1273;32837;-74
2022/06/06 07:18:22;;;;;;;4.20;3.80;;;;;;;32.28;31.24;96781.44;107384;1273;40250;-74
2022/06/06 07:21:00;;;;;;;4.00;3.60;;;;;;;32.46;30.64;96782.17;107307;1274;42025;-74
2022/06/06 07:23:39;;;;;;;4.30;3.90;;;;;;;32.83;30.75;96780.66;107373;1274;36661;-74
2022/06/06 07:26:12;;;;;;;3.10;2.80;;;;;;;34.84;29.83;96781.61;107062;1274;99853;-75
2022/06/06 07:28:44;;;;;;;3.60;3.30;;;;;;;36.32;28.15;96779.84;107132;1274;53245;-75
2022/06/06 07:31:25;;;;;;;4.10;3.80;;;;;;;37.64;26.23;96774.80;107330;1274;83724;-75
2022/06/06 07:34:13;;;;;;;3.60;3.30;;;;;;;37.71;25.07;96773.24;107216;1274;40216;-75
2022/06/06 07:37:04;;;;;;;3.50;3.10;;;;;;;37.65;24.83;96771.36;107451;1274;28734;-75
2022/06/06 07:39:56;;;;;;;3.00;2.80;;;;;;;39.47;25.04;96770.50;107367;1274;29384;-76
2022/06/06 07:42:50;;;;;;;3.90;2.70;;;;;;;41.71;24.35;96769.77;107340;1273;42948;-75
2022/06/06 07:45:29;;;;;;;2.90;2.70;;;;;;;42.55;21.21;96769.84;107332;1274;38621;-76
2022/06/06 07:48:11;;;;;;;2.60;2.40;;;;;;;41.51;20.83;96767.85;107217;1273;125646;-76
2022/06/06 07:50:51;;;;;;;3.80;2.90;;;;;;;41.85;21.65;96765.48;107476;1273;30223;-75
2022/06/06 07:53:38;;;;;;;2.80;2.60;;;;;;;42.89;21.67;96768.61;107302;1273;48345;-76
2022/06/06 07:56:20;;;;;;;3.00;2.70;;;;;;;44.22;20.90;96775.73;107245;1273;72466;-76
2022/06/06 07:59:00;;;;;;;2.70;2.50;;;;;;;45.28;20.18;96774.23;107316;1274;32031;-76
2022/06/06 08:01:40;;;;;;;4.60;2.80;;;;;;;44.58;17.73;96777.95;107271;1274;31186;-76
2022/06/06 08:04:24;;;;;;;3.00;2.80;;;;;;;43.06;18.81;96777.77;107308;1273;31835;-77
2022/06/06 08:07:07;;;;;;;2.90;2.70;;;;;;;42.98;18.63;96771.71;107193;1273;57498;-74
2022/06/06 08:10:03;;;;;;;2.90;2.70;;;;;;;42.79;19.03;96770.14;107152;1274;94566;-74
2022/06/06 08:12:50;;;;;;;3.80;2.80;;;;;;;43.54;19.66;96768.15;107212;1273;33742;-74
2022/06/06 08:15:33;;;;;;;2.90;2.70;;;;;;;44.50;19.36;96766.35;107150;1273;50856;-74
2022/06/06 08:18:27;;;;;;;2.70;2.50;;;;;;;43.88;17.22;96770.20;107168;1274;37149;-74
2022/06/06 08:21:07;;;;;;;4.70;2.70;;;;;;;40.96;19.17;96770.30;107168;1274;73755;-73
2022/06/06 08:23:40;;;;;;;3.00;2.80;;;;;;;40.09;20.23;96770.79;107136;1273;48203;-76
2022/06/06 08:26:13;;;;;;;3.10;2.90;;;;;;;40.58;20.81;96766.48;107357;1273;30223;-76
2022/06/06 08:28:46;;;;;;;3.10;2.70;;;;;;;42.08;20.36;96762.57;107406;1273;39971;-76
2022/06/06 08:31:17;;;;;;;2.80;2.60;;;;;;;43.32;19.58;96764.95;107306;1273;32498;-77
2022/06/06 08:33:48;;;;;;;2.90;2.70;;;;;;;44.42;18.92;96771.55;107242;1273;35441;-77
2022/06/06 08:36:35;;;;;;;3.00;2.80;;;;;;;45.41;18.77;96776.42;107238;1273;43612;-77
2022/06/06 08:39:16;;;;;;;2.90;2.70;;;;;;;46.20;17.23;96771.80;107206;1273;40107;-77
2022/06/06 08:42:22;;;;;;;3.30;3.00;;;;;;;44.50;16.28;96773.20;107237;1273;81141;-77
2022/06/06 08:45:18;;;;;;;3.20;2.90;;;;;;;42.30;16.80;96768.73;107130;1273;39357;-76
2022/06/06 08:48:02;;;;;;;3.00;2.40;;;;;;;40.85;19.75;96769.64;107206;1273;32675;-76
2022/06/06 08:50:58;;;;;;;3.60;2.80;;;;;;;41.42;20.06;96772.35;107291;1273;34870;-76
2022/06/06 08:54:15;;;;;;;3.30;3.00;;;;;;;40.69;20.00;96771.57;107156;1273;60992;-75
2022/06/06 08:57:11;;;;;;;3.60;3.10;;;;;;;38.37;20.53;96774.42;107071;1273;71070;-76
2022/06/06 09:00:12;;;;;;;3.80;3.50;;;;;;;36.56;22.48;96770.16;107063;1273;47927;-75
2022/06/06 09:03:22;;;;;;;3.70;3.40;;;;;;;35.17;24.13;96765.73;107219;1273;39339;-76
2022/06/06 09:06:35;;;;;;;5.50;3.90;;;;;;;33.87;24.54;96769.92;107038;1273;48987;-76
2022/06/06 09:09:42;;;;;;;3.90;3.60;;;;;;;32.80;25.99;96768.42;107135;1273;38519;-76
2022/06/06 09:12:57;;;;;;;4.20;3.80;;;;;;;31.07;27.80;96773.09;107437;1273;31664;-76
2022/06/06 09:15:52;;;;;;;4.80;3.90;;;;;;;30.85;29.74;96773.10;107403;1273;58426;-76
2022/06/06 09:18:55;;;;;;;4.50;3.60;;;;;;;31.46;29.68;96768.73;107431;1273;44228;-76
2022/06/06 09:21:59;;;;;;;6.00;4.60;;;;;;;30.98;28.79;96773.95;108068;1272;33972;-76
2022/06/06 09:25:13;;;;;;;4.70;4.20;;;;;;;29.95;30.14;96771.39;107511;1273;33540;-76
2022/06/06 09:28:16;;;;;;;5.10;4.60;;;;;;;29.07;31.27;96765.24;107525;1271;28388;-76
2022/06/06 09:31:20;;;;;;;5.30;4.10;;;;;;;28.40;32.35;96768.48;107260;1271;39739;-76
2022/06/06 09:34:26;;;;;;;4.60;4.20;;;;;;;28.75;33.49;96766.02;107010;1273;206378;-76
2022/06/06 09:37:21;;;;;;;5.10;4.60;;;;;;;29.10;32.52;96760.48;107158;1272;46272;-76
2022/06/06 09:40:03;;;;;;;5.00;4.50;;;;;;;28.81;32.19;96763.90;107391;1273;35383;-75
2022/06/06 09:42:51;;;;;;;5.30;4.80;;;;;;;28.61;33.51;96763.23;107364;1273;34322;-75
2022/06/06 09:45:30;;;;;;;4.80;4.40;;;;;;;28.72;32.84;96756.52;107375;1273;36789;-75
2022/06/06 09:48:49;;;;;;;4.50;4.10;;;;;;;29.10;32.39;96755.34;107384;1273;37518;-75
2022/06/06 09:51:51;;;;;;;4.30;4.00;;;;;;;29.33;31.56;96758.20;107391;1274;30409;-75
2022/06/06 10:01:33;;;;;;;4.40;3.60;;;;;;;28.93;31.76;96754.14;107398;1274;31075;-75
2022/06/06 10:04:38;;;;;;;5.50;4.40;;;;;;;28.60;30.78;96752.32;107254;1273;61821;-75
2022/06/06 10:08:00;;;;;;;5.80;4.40;;;;;;;28.71;31.82;96753.08;107373;1273;31933;-75
2022/06/06 10:11:01;;;;;;;4.40;4.00;;;;;;;29.04;31.76;96744.91;107319;1273;47324;-75
2022/06/06 10:13:46;;;;;;;5.00;4.30;;;;;;;29.06;30.70;96744.52;107274;1274;36746;-75
2022/06/06 10:16:36;;;;;;;5.30;4.00;;;;;;;28.75;30.09;96740.45;107336;1273;38812;-75
2022/06/06 10:19:36;;;;;;;4.70;4.30;;;;;;;27.82;30.10;96740.21;107283;1273;51897;-75
2022/06/06 10:22:29;;;;;;;5.00;4.30;;;;;;;27.41;31.90;96737.25;107239;1274;44141;-74
2022/06/06 10:25:26;;;;;;;4.80;4.30;;;;;;;27.64;32.51;96737.01;107300;1273;40507;-74
2022/06/06 10:28:16;;;;;;;5.50;5.10;;;;;;;27.80;32.98;96735.02;107318;1273;39206;-74
2022/06/06 10:30:52;;;;;;;;;;;;;;;28.02;32.78;96729.83;107330;1273;50025;-74
2022/06/06 10:33:58;;;;;;;6.10;4.60;;;;;;;27.62;33.02;96731.55;107384;1273;32856;-75
2022/06/06 10:37:09;;;;;;;5.30;4.60;;;;;;;27.86;33.98;96731.05;107082;1273;43153;-74
2022/06/06 10:40:10;;;;;;;5.10;4.70;;;;;;;28.35;34.11;96725.15;107163;1274;39560;-75
2022/06/06 10:43:00;;;;;;;4.30;3.80;;;;;;;28.78;33.47;96724.61;107201;1273;55741;-75
2022/06/06 10:45:46;;;;;;;4.20;3.90;;;;;;;28.92;32.46;96722.02;107284;1273;40751;-74
2022/06/06 10:48:55;;;;;;;4.40;4.00;;;;;;;29.01;32.33;96718.56;107298;1273;43409;-75
2022/06/06 10:51:52;;;;;;;4.00;3.70;;;;;;;29.09;32.69;96712.20;107292;1273;42693;-74
2022/06/06 10:54:55;;;;;;;4.40;4.00;;;;;;;29.22;32.50;96710.11;107327;1273;46649;-75
2022/06/06 10:57:57;;;;;;;4.50;4.10;;;;;;;29.14;32.42;96706.41;107324;1273;40389;-74
2022/06/06 11:00:40;;;;;;;4.20;3.80;;;;;;;29.13;32.33;96703.61;107293;1273;44445;-75
2022/06/06 11:03:49;;;;;;;4.80;3.80;;;;;;;29.11;32.96;96698.86;107307;1273;43313;-74
2022/06/06 11:06:56;;;;;;;4.30;3.90;;;;;;;29.20;32.82;96695.78;107391;1273;29228;-74
2022/06/06 11:10:03;;;;;;;4.80;4.30;;;;;;;29.04;32.11;96692.65;107350;1273;30902;-74
2022/06/06 11:13:03;;;;;;;4.20;3.80;;;;;;;28.94;32.84;96689.25;107276;1273;39578;-74
2022/06/06 11:15:41;;;;;;;6.00;3.90;;;;;;;29.02;32.73;96693.91;107301;1273;59307;-75
2022/06/06 11:18:42;;;;;;;4.00;3.70;;;;;;;29.10;32.49;96690.52;107391;1273;46039;-74
2022/06/06 11:21:58;;;;;;;4.20;3.90;;;;;;;29.10;32.13;96689.81;107435;1273;33377;-74
2022/06/06 11:24:40;;;;;;;4.00;3.70;;;;;;;29.15;31.90;96686.05;107322;1273;60657;-75
2022/06/06 11:27:45;;;;;;;3.90;3.60;;;;;;;29.00;31.44;96686.44;107314;1273;50846;-75
2022/06/06 11:30:48;;;;;;;5.00;3.50;;;;;;;28.48;31.54;96684.02;107327;1273;48082;-74
2022/06/06 11:33:55;;;;;;;4.50;4.10;;;;;;;28.20;31.78;96674.99;107214;1271;47029;-75
2022/06/06 11:36:49;;;;;;;5.50;4.20;;;;;;;27.84;32.65;96676.09;107284;1274;39604;-75
2022/06/06 11:39:46;;;;;;;4.30;3.90;;;;;;;27.99;33.16;96679.13;107259;1273;73193;-76
2022/06/06 11:42:35;;;;;;;4.90;4.00;;;;;;;28.19;32.57;96674.91;107320;1273;47335;-76
2022/06/06 11:45:39;;;;;;;5.10;4.20;;;;;;;28.41;32.57;96672.33;107211;1273;59195;-75
2022/06/06 11:48:49;;;;;;;7.00;4.20;;;;;;;28.62;32.37;96668.92;107322;1273;42203;-75
2022/06/06 11:51:55;;;;;;;4.30;3.90;;;;;;;28.62;32.64;96667.29;107302;1273;50280;-75
2022/06/06 11:55:06;;;;;;;4.80;4.30;;;;;;;28.67;32.96;96664.08;107187;1273;54742;-76
2022/06/06 11:58:06;;;;;;;4.70;3.80;;;;;;;28.61;32.84;96662.61;107357;1273;30060;-75
2022/06/06 12:00:53;;;;;;;4.30;3.70;;;;;;;28.62;32.82;96656.38;107243;1273;42982;-75
2022/06/06 12:03:57;;;;;;;4.60;4.20;;;;;;;28.54;33.24;96652.18;107324;1273;42573;-75
2022/06/06 12:06:51;;;;;;;4.30;3.90;;;;;;;28.60;32.88;96653.12;107268;1273;57705;-75
2022/06/06 12:09:47;;;;;;;6.80;3.90;;;;;;;28.62;32.57;96649.45;107318;1273;38750;-75
2022/06/06 12:13:06;;;;;;;4.10;3.80;;;;;;;28.55;31.92;96644.94;107313;1273;40692;-75
2022/06/06 12:16:11;;;;;;;5.30;3.70;;;;;;;28.42;32.24;96643.65;106982;1277;49326;-75
2022/06/06 12:19:10;;;;;;;4.80;3.90;;;;;;;28.29;31.79;96638.94;107357;1273;60940;-75
2022/06/06 12:22:11;;;;;;;4.50;3.60;;;;;;;28.24;32.41;96640.78;107362;1273;54198;-75
2022/06/06 12:25:24;;;;;;;4.20;3.80;;;;;;;28.42;32.88;96642.02;107415;1273;34976;-75
2022/06/06 12:28:21;;;;;;;5.40;3.60;;;;;;;28.50;32.08;96632.80;107299;1273;38249;-75
2022/06/06 12:31:19;;;;;;;4.20;3.40;;;;;;;28.42;31.78;96627.45;107335;1273;35417;-75
2022/06/06 12:34:02;;;;;;;5.10;3.90;;;;;;;28.17;30.33;96634.27;107284;1272;54952;-75
2022/06/06 12:36:38;;;;;;;3.90;3.50;;;;;;;27.49;30.85;96634.17;107306;1273;58264;-75
2022/06/06 12:39:20;;;;;;;3.80;3.40;;;;;;;27.06;30.92;96633.46;107242;1273;76805;-75
2022/06/06 12:42:04;;;;;;;3.80;3.50;;;;;;;27.09;32.13;96628.35;107278;1273;73696;-75
2022/06/06 12:45:11;;;;;;;4.00;3.70;;;;;;;27.33;32.10;96629.10;107298;1273;49728;-75
2022/06/06 12:48:05;;;;;;;4.20;3.30;;;;;;;27.52;32.07;96626.16;107257;1273;49822;-75
2022/06/06 12:50:48;;;;;;;4.40;3.50;;;;;;;27.70;32.06;96625.03;107328;1273;33825;-75
2022/06/06 12:54:00;;;;;;;3.80;3.00;;;;;;;27.90;31.57;96623.00;107316;1273;44455;-76
2022/06/06 12:56:50;;;;;;;3.40;3.10;;;;;;;27.81;30.90;96618.25;107324;1273;41035;-76
2022/06/06 12:59:47;;;;;;;4.10;3.70;;;;;;;27.59;30.04;96617.63;107271;1273;58680;-75
2022/06/06 13:02:40;;;;;;;4.30;3.30;;;;;;;27.10;29.94;96609.52;107313;1273;36779;-76
2022/06/06 13:05:25;;;;;;;5.70;3.60;;;;;;;27.04;31.29;96608.20;107256;1273;65445;-75
2022/06/06 13:08:21;;;;;;;3.40;3.10;;;;;;;27.35;31.18;96601.27;107253;1274;45863;-75
2022/06/06 13:11:11;;;;;;;4.20;3.50;;;;;;;27.45;31.15;96597.69;107319;1273;42409;-76
2022/06/06 13:14:02;;;;;;;4.00;3.60;;;;;;;27.61;31.44;96594.74;107339;1273;49778;-75